MHTG/TGU METAR and TAF weather

Enter ICAO airport designator
Station Type Date Time Source
MHTG METAR 2018/12/13 23:00 UTC NOAA

MHTG 132300Z 10003KT 9999 FEW030 23/12 Q1018 A3006 NOSIG


Station Type Date Time Source
MHTG Decoded METAR 2018/12/13 23:00 UTC NOAA

Tegucigalpa, Honduras (MHTG) 14-03N 087-13W 1007M
Dec 13, 2018 - 06:00 PM EST / 2018.12.13 2300 UTC
Wind: from the E (100 degrees) at 3 MPH (3 KT):0
Visibility: greater than 7 mile(s):0
Sky conditions: mostly clear
Temperature: 73 F (23 C)
Dew Point: 53 F (12 C)
Relative Humidity: 49%
Pressure (altimeter): 30.06 in. Hg (1017 hPa)
ob: MHTG 132300Z 10003KT 9999 FEW030 23/12 Q1018 A3006 NOSIG
cycle: 23

Station Type Date Time Source
MHTG TAF 2018/12/13 18:34 UTC NOAA

TAF MHTG 131415Z 1318/1418 09005KT 9999 FEW030 TX27/1320Z TN14/1412Z
BECMG 1401/1403 VRB02T
BECMG 1408/1410 BKN025
BECMG 1412/1414 09006KT FEW030


Example: see airport list